Time;durP1;ratioP1;P1;durP2;ratioP2;P2;SDS_P1;SDS_P2;PMS_P1;PMS_P2;Temp;Humidity;BMP_temperature;BMP_pressure;BME280_temperature;BME280_humidity;BME280_pressure;Samples;Min_cycle;Max_cycle;Signal;HPM_P1;HPM_P2
2023/01/19 00:00:23;;;;;;;20.90;12.00;;;;;;;7.40;94.31;98966.16;106104;1254;61380;-77
2023/01/19 00:02:50;;;;;;;20.70;11.00;;;;;;;7.34;94.32;98967.02;105868;1259;60527;-82
2023/01/19 00:05:17;;;;;;;24.20;10.20;;;;;;;7.35;94.31;98965.80;106296;1259;74718;-83
2023/01/19 00:07:44;;;;;;;20.50;10.40;;;;;;;7.36;93.88;98969.17;107218;1255;69220;-84
2023/01/19 00:10:11;;;;;;;25.10;11.00;;;;;;;7.27;94.22;98975.14;107097;1254;73697;-85
2023/01/19 00:12:38;;;;;;;25.90;10.80;;;;;;;7.20;94.49;98977.36;107053;1260;60452;-85
2023/01/19 00:15:06;;;;;;;21.60;9.70;;;;;;;7.17;94.31;98981.83;108220;1254;59969;-79
2023/01/19 00:17:32;;;;;;;21.00;9.40;;;;;;;7.22;94.61;98990.48;108403;1253;73657;-81
2023/01/19 00:20:00;;;;;;;21.00;9.80;;;;;;;7.20;94.94;98998.23;106840;1259;69143;-77
2023/01/19 00:22:27;;;;;;;24.50;10.70;;;;;;;7.14;94.81;99004.01;105818;1259;73832;-79
2023/01/19 00:24:53;;;;;;;21.70;10.60;;;;;;;7.09;95.19;99004.96;105910;1259;61987;-80
2023/01/19 00:27:20;;;;;;;24.50;10.10;;;;;;;7.12;94.84;99004.27;106236;1254;60427;-78
2023/01/19 00:29:47;;;;;;;19.50;9.70;;;;;;;7.15;94.89;98994.63;105948;1259;73691;-85
2023/01/19 00:32:16;;;;;;;20.20;10.30;;;;;;;7.08;94.81;98985.52;105788;1258;69730;-74
2023/01/19 00:34:48;;;;;;;20.50;10.80;;;;;;;6.99;95.29;98985.44;105562;1257;72848;-76
2023/01/19 00:37:16;;;;;;;26.30;9.70;;;;;;;6.90;95.71;99000.55;105855;1259;60424;-76
2023/01/19 00:39:43;;;;;;;21.20;10.00;;;;;;;6.94;95.39;99009.03;105504;1261;60445;-75
2023/01/19 00:44:56;;;;;;;20.30;11.20;;;;;;;6.80;96.36;99019.05;105962;1256;68687;-75
2023/01/19 00:47:23;;;;;;;19.40;9.70;;;;;;;6.71;96.93;99015.79;105808;1257;72201;-75
2023/01/19 00:49:50;;;;;;;17.30;9.40;;;;;;;6.73;97.05;99013.45;106551;1254;63346;-76
2023/01/19 00:52:17;;;;;;;18.40;9.50;;;;;;;6.75;97.31;99017.48;107157;1257;59138;-77
2023/01/19 00:54:45;;;;;;;17.80;10.30;;;;;;;6.71;97.58;99018.58;106135;1255;72851;-75
2023/01/19 00:57:12;;;;;;;18.40;9.40;;;;;;;6.66;97.66;99013.52;105939;1254;69199;-78
2023/01/19 00:59:38;;;;;;;20.10;9.40;;;;;;;6.70;97.82;99015.84;106061;1257;72490;-80
2023/01/19 01:02:05;;;;;;;20.40;10.80;;;;;;;6.73;97.78;99018.20;106090;1253;60587;-76
2023/01/19 01:04:32;;;;;;;23.50;10.50;;;;;;;6.70;97.95;99016.64;105951;1255;60495;-78
2023/01/19 01:06:59;;;;;;;17.60;9.70;;;;;;;6.65;98.09;99004.25;105854;1253;75102;-82
2023/01/19 01:09:28;;;;;;;19.00;9.50;;;;;;;6.72;97.87;98999.13;106478;1256;71295;-84
2023/01/19 01:11:55;;;;;;;22.40;10.50;;;;;;;6.79;97.84;98997.35;105949;1259;72625;-77
2023/01/19 01:14:22;;;;;;;22.70;12.40;;;;;;;6.79;98.24;99001.21;106050;1254;60874;-81
2023/01/19 01:16:50;;;;;;;22.40;10.40;;;;;;;6.78;98.27;99013.82;106343;1253;60337;-81
2023/01/19 01:19:16;;;;;;;19.40;10.00;;;;;;;6.81;98.19;99010.83;106711;1257;73620;-80
2023/01/19 01:21:44;;;;;;;23.00;10.80;;;;;;;6.89;97.76;98998.76;106867;1254;69608;-80
2023/01/19 01:24:11;;;;;;;23.00;10.50;;;;;;;6.88;97.71;99005.71;108213;1254;72613;-79
2023/01/19 01:26:38;;;;;;;24.60;11.40;;;;;;;6.83;97.58;99020.63;107371;1259;60856;-76
2023/01/19 01:29:05;;;;;;;17.70;10.10;;;;;;;6.81;97.60;99023.00;106524;1257;61350;-77
2023/01/19 01:31:32;;;;;;;23.50;10.10;;;;;;;6.86;97.38;99019.52;106174;1257;72851;-80
2023/01/19 01:33:59;;;;;;;16.40;9.40;;;;;;;6.84;97.28;99021.96;105816;1254;70396;-78
2023/01/19 01:36:30;;;;;;;21.60;10.30;;;;;;;6.76;97.39;99027.59;106040;1259;73968;-75
2023/01/19 01:38:57;;;;;;;19.70;10.80;;;;;;;6.68;97.38;99025.64;105662;1259;352419;-77
2023/01/19 01:43:52;;;;;;;20.90;9.20;;;;;;;6.73;97.21;99033.86;102656;1291;600338;-77
2023/01/19 01:46:19;;;;;;;18.80;10.50;;;;;;;6.64;97.52;99050.50;105245;1267;62663;-77
2023/01/19 01:48:50;;;;;;;16.90;9.40;;;;;;;6.59;97.77;99058.20;105136;1266;61661;-78
2023/01/19 01:51:24;;;;;;;19.20;9.60;;;;;;;6.64;97.39;99053.27;105234;1266;73135;-77
2023/01/19 01:54:19;;;;;;;19.80;9.60;;;;;;;6.66;97.33;99044.34;105085;1266;70609;-77
2023/01/19 01:56:47;;;;;;;18.50;10.50;;;;;;;6.56;97.46;99058.89;104704;1266;175676;-78
2023/01/19 01:59:28;;;;;;;16.50;8.90;;;;;;;6.50;97.61;99065.42;105034;1263;64158;-76
2023/01/19 02:04:49;;;;;;;20.60;10.00;;;;;;;6.57;97.19;99079.39;105471;1255;74239;-75
2023/01/19 02:13:22;;;;;;;23.10;10.70;;;;;;;6.53;96.72;99071.34;105617;1253;60070;-77
2023/01/19 02:15:53;;;;;;;17.80;9.80;;;;;;;6.48;96.76;99074.06;106079;1258;60802;-78
2023/01/19 02:18:21;;;;;;;16.10;9.50;;;;;;;6.44;97.05;99068.92;105796;1253;75117;-76
2023/01/19 02:21:07;;;;;;;18.50;9.70;;;;;;;6.41;96.82;99059.22;105610;1256;71676;-79
2023/01/19 02:23:38;;;;;;;16.90;9.90;;;;;;;6.46;96.29;99051.81;105699;1259;70784;-77
2023/01/19 02:26:06;;;;;;;15.70;9.30;;;;;;;6.44;96.33;99051.08;105753;1256;60545;-75
2023/01/19 02:28:32;;;;;;;16.80;10.20;;;;;;;6.41;96.64;99055.63;106099;1253;59909;-74
2023/01/19 02:30:59;;;;;;;16.60;9.70;;;;;;;6.36;96.91;99057.05;107463;1251;75087;-75
2023/01/19 02:33:26;;;;;;;15.40;9.70;;;;;;;6.33;96.98;99055.94;106938;1252;70130;-75
2023/01/19 02:35:53;;;;;;;17.20;9.20;;;;;;;6.41;96.71;99054.91;105974;1253;75097;-75
2023/01/19 02:38:20;;;;;;;20.30;10.90;;;;;;;6.46;96.26;99056.70;106155;1253;61393;-77
2023/01/19 02:40:47;;;;;;;19.90;11.10;;;;;;;6.43;96.43;99060.88;106497;1253;61088;-81
2023/01/19 02:43:13;;;;;;;18.30;9.60;;;;;;;6.41;96.57;99059.55;105869;1253;71754;-77
2023/01/19 02:45:41;;;;;;;14.70;8.70;;;;;;;6.41;96.58;99057.27;105530;1253;72657;-76
2023/01/19 02:48:08;;;;;;;16.70;9.30;;;;;;;6.50;96.10;99054.23;106028;1258;71921;-75
2023/01/19 02:50:37;;;;;;;16.40;7.80;;;;;;;6.55;95.99;99036.45;106488;1253;62478;-77
2023/01/19 02:53:33;;;;;;;16.60;8.30;;;;;;;6.52;95.81;99032.02;106134;1253;62270;-77
2023/01/19 02:56:23;;;;;;;17.90;9.10;;;;;;;6.47;95.74;99036.15;106202;1258;75300;-77
2023/01/19 02:59:14;;;;;;;12.90;7.40;;;;;;;6.46;95.64;99026.42;106003;1257;72497;-78
2023/01/19 03:02:00;;;;;;;13.10;7.60;;;;;;;6.58;95.27;99033.69;105777;1259;75022;-76
2023/01/19 03:04:44;;;;;;;15.40;8.90;;;;;;;6.63;95.19;99043.20;105800;1253;61512;-78
2023/01/19 03:07:27;;;;;;;13.40;8.80;;;;;;;6.59;95.15;99041.52;106034;1253;60283;-79
2023/01/19 03:10:26;;;;;;;18.20;8.00;;;;;;;6.56;95.36;99038.27;105813;1253;73130;-79
2023/01/19 03:13:15;;;;;;;19.30;8.50;;;;;;;6.65;95.18;99054.77;105733;1253;72078;-77
2023/01/19 03:15:46;;;;;;;15.70;8.90;;;;;;;6.64;94.82;99058.55;105720;1259;75035;-76
2023/01/19 03:18:15;;;;;;;17.10;9.60;;;;;;;6.55;94.88;99063.77;105471;1253;62049;-76
2023/01/19 03:20:42;;;;;;;12.50;8.90;;;;;;;6.45;95.07;99074.98;105974;1253;61946;-77
2023/01/19 03:23:10;;;;;;;21.00;9.20;;;;;;;6.44;95.24;99076.95;105365;1258;72980;-75
2023/01/19 03:25:40;;;;;;;14.90;8.60;;;;;;;6.42;95.30;99083.50;105891;1258;72284;-76
2023/01/19 03:28:06;;;;;;;16.40;9.60;;;;;;;6.34;95.53;99075.04;106005;1253;71716;-77
2023/01/19 03:30:39;;;;;;;14.40;8.20;;;;;;;6.26;95.69;99075.52;105700;1253;64321;-76
2023/01/19 03:33:15;;;;;;;20.50;9.90;;;;;;;6.29;95.75;99075.84;106021;1252;61299;-76
2023/01/19 03:35:48;;;;;;;18.20;9.40;;;;;;;6.31;95.69;99080.27;106416;1253;74173;-75
2023/01/19 03:38:16;;;;;;;18.20;8.80;;;;;;;6.24;96.07;99087.88;106403;1259;71342;-74
2023/01/19 03:40:43;;;;;;;21.70;10.30;;;;;;;6.17;96.24;99092.10;106450;1256;74544;-74
2023/01/19 03:43:09;;;;;;;17.00;8.00;;;;;;;6.20;96.19;99092.11;105673;1259;63037;-75
2023/01/19 03:45:37;;;;;;;19.60;9.60;;;;;;;6.22;96.18;99089.83;106026;1256;60576;-74
2023/01/19 03:48:04;;;;;;;15.40;9.60;;;;;;;6.16;96.39;99087.41;106203;1257;74807;-75
2023/01/19 03:50:31;;;;;;;11.50;8.50;;;;;;;6.08;96.64;99081.34;105972;1254;72150;-78
2023/01/19 03:53:07;;;;;;;19.50;10.30;;;;;;;6.08;96.68;99085.84;105865;1260;73473;-79
2023/01/19 03:55:34;;;;;;;17.70;9.30;;;;;;;6.14;96.65;99086.38;106189;1253;61353;-77
2023/01/19 03:58:01;;;;;;;21.20;10.80;;;;;;;6.11;96.95;99089.33;106416;1253;60101;-77
2023/01/19 04:00:28;;;;;;;18.50;9.30;;;;;;;6.06;97.14;99080.88;106193;1260;75157;-78
2023/01/19 04:02:55;;;;;;;16.90;8.50;;;;;;;6.05;97.34;99076.36;107177;1253;69085;-80
2023/01/19 04:05:22;;;;;;;16.10;8.80;;;;;;;6.13;97.17;99072.79;109089;1253;73931;-79
2023/01/19 04:07:50;;;;;;;19.90;10.40;;;;;;;6.15;97.33;99074.16;108780;1253;61380;-80
2023/01/19 04:10:17;;;;;;;14.90;8.20;;;;;;;6.14;97.40;99074.07;107559;1253;60425;-80
2023/01/19 04:12:44;;;;;;;15.70;8.20;;;;;;;6.13;97.52;99074.34;108629;1253;73518;-80
2023/01/19 04:15:11;;;;;;;18.30;7.90;;;;;;;6.21;97.54;99085.52;107718;1253;71577;-83
2023/01/19 04:17:38;;;;;;;16.80;8.30;;;;;;;6.27;97.35;99089.27;106887;1256;73540;-80
2023/01/19 04:20:06;;;;;;;16.70;8.90;;;;;;;6.24;97.47;99094.48;106892;1253;61270;-79
2023/01/19 04:22:34;;;;;;;17.70;7.00;;;;;;;6.20;97.66;99095.11;106198;1253;60913;-78
2023/01/19 04:25:01;;;;;;;17.60;6.80;;;;;;;6.21;97.57;99103.98;108463;1256;73122;-77
2023/01/19 04:27:28;;;;;;;14.80;8.10;;;;;;;6.27;97.49;99113.91;108006;1252;71567;-75
2023/01/19 04:29:55;;;;;;;18.40;8.30;;;;;;;6.24;97.64;99116.52;108835;1253;73895;-76
2023/01/19 04:32:22;;;;;;;22.30;9.40;;;;;;;6.18;97.93;99113.20;107038;1256;61461;-75
2023/01/19 04:34:49;;;;;;;15.70;8.30;;;;;;;6.15;98.22;99113.75;106286;1254;61213;-75
2023/01/19 04:37:16;;;;;;;11.00;7.50;;;;;;;6.20;98.03;99113.71;106097;1253;74785;-76
2023/01/19 04:39:43;;;;;;;16.00;7.90;;;;;;;6.24;97.92;99117.56;107031;1253;72409;-77
2023/01/19 04:42:10;;;;;;;14.10;8.10;;;;;;;6.20;98.07;99116.32;107122;1253;75167;-78
2023/01/19 04:44:37;;;;;;;18.80;8.70;;;;;;;6.16;98.25;99111.85;107248;1261;61372;-76
2023/01/19 04:47:04;;;;;;;16.90;8.90;;;;;;;6.19;98.17;99107.86;107036;1251;61298;-75
2023/01/19 04:49:31;;;;;;;17.00;8.10;;;;;;;6.22;98.16;99106.10;105785;1254;72722;-76
2023/01/19 04:51:58;;;;;;;16.00;8.30;;;;;;;6.18;98.37;99093.52;105686;1253;72425;-79
2023/01/19 04:54:25;;;;;;;15.80;7.70;;;;;;;6.14;98.48;99097.95;105768;1261;75031;-76
2023/01/19 04:56:52;;;;;;;17.90;8.20;;;;;;;6.19;98.39;99108.39;105681;1255;64184;-76
2023/01/19 04:59:20;;;;;;;15.30;8.50;;;;;;;6.24;98.39;99110.48;105645;1257;62305;-74
2023/01/19 05:01:47;;;;;;;17.60;8.50;;;;;;;6.22;98.60;99107.34;105418;1259;74873;-77
2023/01/19 05:04:14;;;;;;;12.20;8.60;;;;;;;6.19;98.66;99111.36;105245;1261;70504;-75
2023/01/19 05:06:41;;;;;;;18.00;9.10;;;;;;;6.22;98.49;99108.92;105481;1254;72751;-76
2023/01/19 05:09:10;;;;;;;17.40;9.40;;;;;;;6.26;98.29;99108.21;105557;1256;60806;-76
2023/01/19 05:11:37;;;;;;;20.90;9.90;;;;;;;6.22;98.57;99111.23;105785;1253;60919;-77
2023/01/19 05:14:04;;;;;;;19.30;9.00;;;;;;;6.19;98.73;99118.63;105557;1253;75619;-77
2023/01/19 05:16:32;;;;;;;16.90;7.40;;;;;;;6.22;98.36;99118.40;105726;1259;69397;-76
2023/01/19 05:18:59;;;;;;;14.20;8.10;;;;;;;6.28;98.09;99115.54;105653;1252;72283;-76
2023/01/19 05:21:27;;;;;;;16.60;8.30;;;;;;;6.26;98.12;99115.20;105858;1254;60939;-76
2023/01/19 05:23:53;;;;;;;15.70;8.10;;;;;;;6.26;98.54;99113.48;105769;1256;61190;-75
2023/01/19 05:26:20;;;;;;;19.80;9.00;;;;;;;6.27;98.68;99120.91;105517;1251;72885;-74
2023/01/19 05:28:49;;;;;;;14.10;7.70;;;;;;;6.39;98.24;99129.10;105476;1259;70669;-73
2023/01/19 05:31:16;;;;;;;16.10;8.20;;;;;;;6.47;97.96;99113.27;105284;1253;75040;-74
2023/01/19 05:33:45;;;;;;;13.10;8.80;;;;;;;6.48;97.56;99111.73;105260;1259;60847;-76
2023/01/19 05:36:12;;;;;;;19.50;9.90;;;;;;;6.49;97.50;99120.11;105377;1258;59650;-75
2023/01/19 05:38:39;;;;;;;12.00;8.10;;;;;;;6.53;97.44;99118.31;105509;1254;73051;-75
2023/01/19 05:41:06;;;;;;;13.80;9.30;;;;;;;6.66;97.09;99120.95;106224;1257;72349;-77
2023/01/19 05:43:33;;;;;;;17.20;10.00;;;;;;;6.75;96.35;99133.77;106173;1258;74942;-77
2023/01/19 05:45:59;;;;;;;21.20;13.20;;;;;;;6.73;95.97;99122.06;105676;1256;61891;-75
2023/01/19 05:48:26;;;;;;;23.00;16.30;;;;;;;6.63;95.76;99123.08;105727;1254;61112;-71
2023/01/19 05:50:56;;;;;;;20.50;13.10;;;;;;;6.51;95.48;99128.83;106249;1253;73818;-77
2023/01/19 05:53:24;;;;;;;19.60;12.70;;;;;;;6.51;95.32;99125.00;106662;1253;70454;-77
2023/01/19 05:55:51;;;;;;;16.10;11.20;;;;;;;6.48;95.35;99123.70;106475;1253;73451;-76
2023/01/19 05:58:18;;;;;;;21.50;12.80;;;;;;;6.40;95.60;99127.33;106791;1253;62383;-75
2023/01/19 06:00:44;;;;;;;23.20;14.60;;;;;;;6.34;96.05;99119.66;106609;1260;61231;-73
2023/01/19 06:03:12;;;;;;;22.20;13.80;;;;;;;6.33;96.41;99113.98;105569;1258;74861;-74
2023/01/19 06:05:39;;;;;;;20.30;13.10;;;;;;;6.43;96.28;99119.65;105488;1260;71328;-76
2023/01/19 06:08:06;;;;;;;22.80;12.90;;;;;;;6.48;95.78;99112.95;105591;1256;72943;-74
2023/01/19 06:10:33;;;;;;;19.00;12.30;;;;;;;6.46;96.31;99120.59;105479;1259;61244;-74
2023/01/19 06:13:00;;;;;;;21.10;14.00;;;;;;;6.47;96.89;99116.90;105375;1254;61414;-73
2023/01/19 06:15:27;;;;;;;19.40;11.80;;;;;;;6.52;96.94;99107.33;105330;1253;74952;-73
2023/01/19 06:17:55;;;;;;;21.60;12.90;;;;;;;6.64;96.29;99082.38;105431;1259;70215;-74
2023/01/19 06:20:22;;;;;;;23.20;12.90;;;;;;;6.72;96.02;99074.08;105623;1253;74822;-74
2023/01/19 06:22:49;;;;;;;22.90;13.20;;;;;;;6.72;95.94;99054.21;105573;1253;60486;-74
2023/01/19 06:25:16;;;;;;;16.50;10.00;;;;;;;6.71;96.15;99029.14;105317;1260;62686;-76
2023/01/19 06:27:44;;;;;;;16.60;9.20;;;;;;;6.70;96.00;99008.69;105443;1258;73207;-78
2023/01/19 06:30:12;;;;;;;16.80;10.50;;;;;;;6.76;95.65;99004.15;105539;1259;72985;-75
2023/01/19 06:32:39;;;;;;;17.40;9.30;;;;;;;6.80;95.18;99005.48;105464;1256;74836;-76
2023/01/19 06:35:06;;;;;;;18.80;12.00;;;;;;;6.75;95.48;99002.19;105460;1257;62470;-78
2023/01/19 06:37:34;;;;;;;23.40;15.70;;;;;;;6.67;95.38;98992.94;105695;1258;61951;-75
2023/01/19 06:40:01;;;;;;;23.40;14.50;;;;;;;6.61;95.50;98990.75;105581;1259;73863;-78
2023/01/19 06:42:28;;;;;;;22.30;13.90;;;;;;;6.63;95.19;98984.08;105532;1259;72330;-75
2023/01/19 06:44:55;;;;;;;21.40;14.30;;;;;;;6.62;94.80;98978.00;105629;1257;73874;-76
2023/01/19 06:47:22;;;;;;;26.40;19.50;;;;;;;6.52;95.35;98985.95;105840;1259;61046;-75
2023/01/19 06:49:49;;;;;;;27.40;19.30;;;;;;;6.41;95.24;98984.09;105636;1256;62702;-76
2023/01/19 06:52:17;;;;;;;29.60;18.10;;;;;;;6.28;95.31;98985.96;105825;1261;75118;-76
2023/01/19 06:54:44;;;;;;;21.90;15.20;;;;;;;6.25;95.26;98985.91;105869;1258;72467;-77
2023/01/19 06:57:13;;;;;;;21.50;14.00;;;;;;;6.23;95.48;98978.59;105849;1259;71824;-77
2023/01/19 06:59:40;;;;;;;25.30;14.50;;;;;;;6.14;95.82;98976.10;107641;1252;60532;-78
2023/01/19 07:02:08;;;;;;;23.20;15.70;;;;;;;6.07;96.57;98970.89;106939;1253;61172;-75
2023/01/19 07:04:55;;;;;;;18.30;13.50;;;;;;;6.07;96.91;98969.09;106178;1259;76360;-78
2023/01/19 07:07:21;;;;;;;20.00;12.50;;;;;;;6.19;96.75;98965.11;105915;1260;72272;-78
2023/01/19 07:09:49;;;;;;;19.30;13.90;;;;;;;6.25;96.82;98964.11;105619;1255;71606;-78
2023/01/19 07:12:20;;;;;;;19.70;14.20;;;;;;;6.23;97.01;98973.24;105546;1257;62070;-78
2023/01/19 07:14:48;;;;;;;22.10;15.30;;;;;;;6.19;97.23;98977.21;105633;1261;60508;-79
2023/01/19 07:17:15;;;;;;;23.30;16.10;;;;;;;6.17;97.22;98983.18;106120;1258;75906;-77
2023/01/19 07:19:45;;;;;;;30.30;18.30;;;;;;;6.24;96.91;98997.38;106618;1254;72320;-78
2023/01/19 07:22:12;;;;;;;34.90;20.90;;;;;;;6.24;96.78;99000.27;106657;1259;73615;-78
2023/01/19 07:24:40;;;;;;;45.60;23.90;;;;;;;6.09;96.78;98998.77;106085;1259;60685;-78
2023/01/19 07:27:07;;;;;;;27.70;20.20;;;;;;;5.96;97.26;98999.57;105479;1262;60439;-78
2023/01/19 07:29:34;;;;;;;26.90;20.50;;;;;;;5.96;97.42;98998.56;105703;1257;73712;-79
2023/01/19 07:32:01;;;;;;;32.30;22.50;;;;;;;5.96;97.57;99002.61;105646;1262;71432;-77
2023/01/19 07:34:28;;;;;;;32.70;22.00;;;;;;;5.87;98.08;98996.14;105843;1259;75224;-78
2023/01/19 07:36:55;;;;;;;26.80;19.80;;;;;;;5.78;98.69;99002.48;105472;1259;63736;-77
2023/01/19 07:39:22;;;;;;;23.80;19.10;;;;;;;5.82;98.81;98995.92;105389;1260;62490;-80
2023/01/19 07:41:49;;;;;;;32.20;20.20;;;;;;;5.87;98.93;98986.76;105671;1259;75496;-78
2023/01/19 07:44:16;;;;;;;26.50;18.20;;;;;;;5.82;98.93;98986.98;105578;1259;70695;-77
2023/01/19 07:46:43;;;;;;;20.70;17.30;;;;;;;5.73;99.14;98996.45;105830;1257;73533;-74
2023/01/19 07:49:11;;;;;;;21.50;16.40;;;;;;;5.74;98.96;99001.25;105412;1258;61982;-78
2023/01/19 07:51:38;;;;;;;23.10;16.20;;;;;;;5.78;99.03;98987.89;105633;1254;61285;-76
2023/01/19 07:54:07;;;;;;;19.80;14.70;;;;;;;5.74;99.26;98982.79;105521;1256;73037;-78
2023/01/19 07:56:34;;;;;;;18.60;13.10;;;;;;;5.68;99.36;98983.28;105943;1257;72479;-78
2023/01/19 07:59:01;;;;;;;17.20;11.10;;;;;;;5.74;99.21;98979.70;105705;1257;72982;-75
2023/01/19 08:01:28;;;;;;;15.70;11.80;;;;;;;5.80;99.02;98995.17;105913;1260;61234;-78
2023/01/19 08:04:44;;;;;;;;;;;;;;;;;;;;;
2023/01/19 08:07:11;;;;;;;25.60;14.90;;;;;;;5.68;99.27;98987.99;107606;1257;74005;-79
2023/01/19 08:09:38;;;;;;;22.90;15.50;;;;;;;5.69;99.21;98992.95;107441;1254;72498;-78
2023/01/19 08:12:05;;;;;;;26.00;16.00;;;;;;;5.82;98.92;98991.11;106349;1258;73912;-79
2023/01/19 08:14:33;;;;;;;31.30;17.60;;;;;;;5.87;98.62;98985.93;105740;1257;61963;-74
2023/01/19 08:17:00;;;;;;;31.30;16.80;;;;;;;5.81;98.66;98987.90;105900;1259;62751;-75
2023/01/19 08:19:27;;;;;;;23.70;14.80;;;;;;;5.79;98.77;98985.52;105846;1258;76072;-75
2023/01/19 08:21:55;;;;;;;23.10;15.10;;;;;;;5.84;98.37;98983.52;105425;1260;68950;-75
2023/01/19 08:24:24;;;;;;;25.70;15.60;;;;;;;5.90;98.23;98977.30;105568;1257;72781;-74
2023/01/19 08:26:54;;;;;;;24.00;16.70;;;;;;;5.88;98.41;98994.60;105403;1254;62555;-75
2023/01/19 08:29:21;;;;;;;20.30;14.10;;;;;;;5.84;98.59;99006.80;105299;1257;65754;-74
2023/01/19 08:31:48;;;;;;;14.50;8.30;;;;;;;5.89;98.19;99021.38;105566;1258;74708;-76
2023/01/19 08:34:15;;;;;;;10.20;8.00;;;;;;;5.91;97.02;99027.14;105527;1261;72206;-75
2023/01/19 08:36:42;;;;;;;11.30;6.40;;;;;;;5.80;97.22;99037.02;105527;1260;74970;-75
2023/01/19 08:39:11;;;;;;;8.40;6.50;;;;;;;5.67;96.44;99032.16;105355;1260;64177;-72
2023/01/19 08:41:38;;;;;;;8.20;5.60;;;;;;;5.60;96.16;99026.74;105412;1257;60973;-75
2023/01/19 08:44:04;;;;;;;8.40;6.60;;;;;;;5.57;96.16;99023.39;105416;1259;74232;-75
2023/01/19 08:46:31;;;;;;;8.10;7.30;;;;;;;5.50;96.57;99026.70;105478;1260;72466;-74
2023/01/19 08:48:58;;;;;;;9.00;6.50;;;;;;;5.45;96.97;99037.08;105555;1257;74442;-75
2023/01/19 08:51:25;;;;;;;9.10;7.00;;;;;;;5.39;96.96;99043.11;105437;1257;62748;-75
2023/01/19 08:53:52;;;;;;;8.80;5.80;;;;;;;5.41;96.73;99041.31;105662;1259;60418;-76
2023/01/19 08:56:19;;;;;;;14.20;6.80;;;;;;;5.40;96.84;99043.12;106158;1260;76262;-76
2023/01/19 08:58:46;;;;;;;18.20;6.60;;;;;;;5.31;97.03;99038.40;105493;1254;71475;-75
2023/01/19 09:01:33;;;;;;;12.80;7.60;;;;;;;5.21;97.57;99042.89;105659;1254;73585;-76
2023/01/19 09:04:00;;;;;;;9.60;6.50;;;;;;;5.19;97.77;99037.84;106107;1254;62210;-75
2023/01/19 09:06:27;;;;;;;13.00;6.90;;;;;;;5.24;97.71;99036.46;106915;1251;60539;-74
2023/01/19 09:08:54;;;;;;;8.00;6.60;;;;;;;5.19;98.21;99038.20;107943;1252;74687;-74
2023/01/19 09:11:20;;;;;;;11.80;7.40;;;;;;;5.13;98.61;99039.29;107297;1259;70824;-74
2023/01/19 09:13:47;;;;;;;11.90;7.40;;;;;;;5.17;98.59;99042.55;107258;1255;74868;-73
2023/01/19 09:16:14;;;;;;;14.30;8.60;;;;;;;5.25;98.84;99037.75;106197;1259;61312;-74
2023/01/19 09:18:41;;;;;;;12.10;9.40;;;;;;;5.27;99.18;99039.52;105897;1255;61325;-75
2023/01/19 09:21:08;;;;;;;11.30;8.30;;;;;;;5.28;99.45;99041.98;105507;1258;75661;-75
2023/01/19 09:23:35;;;;;;;13.80;8.20;;;;;;;5.36;99.12;99037.95;105315;1254;72750;-75
2023/01/19 09:26:03;;;;;;;12.50;8.90;;;;;;;5.40;98.78;99029.26;105367;1259;74893;-75
2023/01/19 09:28:30;;;;;;;15.70;9.20;;;;;;;5.37;98.95;99028.67;105378;1258;60837;-74
2023/01/19 09:30:57;;;;;;;16.10;10.20;;;;;;;5.32;99.36;99014.77;105554;1260;61196;-74
2023/01/19 09:33:24;;;;;;;11.70;9.50;;;;;;;5.28;99.21;99008.61;105386;1258;75942;-74
2023/01/19 09:35:51;;;;;;;11.50;8.70;;;;;;;5.36;99.06;99008.20;105604;1260;72629;-73
2023/01/19 09:38:18;;;;;;;11.50;9.20;;;;;;;5.41;98.96;99004.89;105452;1257;74585;-73
2023/01/19 09:40:51;;;;;;;15.20;10.70;;;;;;;5.36;99.35;99005.77;105588;1254;62336;-73
2023/01/19 09:43:30;;;;;;;13.90;10.30;;;;;;;5.31;99.69;98995.89;105532;1257;60407;-73
2023/01/19 09:45:57;;;;;;;13.20;10.40;;;;;;;5.41;99.90;98992.64;105559;1260;76214;-74
2023/01/19 09:48:29;;;;;;;15.80;10.60;;;;;;;5.49;99.82;98985.52;105508;1267;70565;-77
2023/01/19 09:51:00;;;;;;;13.90;10.40;;;;;;;5.47;99.95;98972.50;105383;1257;74559;-77
2023/01/19 09:53:44;;;;;;;13.40;9.70;;;;;;;5.47;100.00;98980.63;105693;1260;63817;-76
2023/01/19 09:56:13;;;;;;;12.40;10.20;;;;;;;5.53;99.88;98972.65;105664;1254;62481;-77
2023/01/19 09:58:40;;;;;;;14.00;10.50;;;;;;;5.53;99.83;98960.73;105714;1254;72564;-77
2023/01/19 10:01:21;;;;;;;15.10;11.70;;;;;;;5.48;100.00;98968.71;105953;1257;72318;-77
2023/01/19 10:03:49;;;;;;;17.30;10.70;;;;;;;5.45;100.00;98963.11;105556;1260;73353;-77
2023/01/19 10:06:16;;;;;;;17.00;11.10;;;;;;;5.51;100.00;98958.10;105813;1254;64459;-77
2023/01/19 10:08:51;;;;;;;15.30;11.10;;;;;;;5.59;100.00;98948.02;105590;1254;60702;-77
2023/01/19 10:11:44;;;;;;;17.10;12.30;;;;;;;5.58;100.00;98939.59;105573;1260;74646;-76
2023/01/19 10:14:33;;;;;;;15.50;10.70;;;;;;;5.59;100.00;98934.75;105834;1257;71447;-76
2023/01/19 10:17:34;;;;;;;17.40;10.20;;;;;;;5.70;100.00;98929.46;105826;1254;74933;-76
2023/01/19 10:20:02;;;;;;;16.10;10.80;;;;;;;5.74;100.00;98921.90;106245;1255;62263;-76
2023/01/19 10:22:29;;;;;;;19.50;10.90;;;;;;;5.71;100.00;98922.27;106422;1253;60979;-76
2023/01/19 10:25:01;;;;;;;17.90;11.20;;;;;;;5.80;100.00;98921.64;105924;1254;73998;-77
2023/01/19 10:27:29;;;;;;;17.60;11.80;;;;;;;5.93;100.00;98911.30;106029;1259;71404;-76
2023/01/19 10:29:56;;;;;;;19.70;13.40;;;;;;;5.99;100.00;98911.61;106117;1257;73962;-76
2023/01/19 10:32:45;;;;;;;17.30;11.80;;;;;;;6.04;100.00;98922.27;105844;1258;62452;-76
2023/01/19 10:35:22;;;;;;;18.80;12.60;;;;;;;6.14;100.00;98911.95;105464;1261;62511;-76
2023/01/19 10:37:55;;;;;;;15.40;11.60;;;;;;;6.25;100.00;98922.41;105562;1254;75289;-77
2023/01/19 10:40:26;;;;;;;17.60;12.40;;;;;;;6.22;100.00;98911.85;105715;1259;72634;-77
2023/01/19 10:42:53;;;;;;;17.60;11.80;;;;;;;6.17;100.00;98911.38;105649;1254;73700;-77
2023/01/19 10:45:22;;;;;;;15.50;11.00;;;;;;;6.19;100.00;98903.02;105439;1252;62968;-77
2023/01/19 10:47:51;;;;;;;23.10;12.90;;;;;;;6.25;100.00;98899.56;105871;1254;61910;-76
2023/01/19 10:50:36;;;;;;;16.80;12.30;;;;;;;6.20;100.00;98888.63;105804;1260;75524;-77
2023/01/19 10:53:04;;;;;;;16.00;12.60;;;;;;;6.12;100.00;98892.89;105783;1257;69714;-76
2023/01/19 10:55:36;;;;;;;18.00;11.80;;;;;;;6.14;100.00;98887.86;105814;1260;71051;-76
2023/01/19 10:58:05;;;;;;;16.60;13.50;;;;;;;6.16;100.00;98886.29;105517;1260;60955;-76
2023/01/19 11:00:37;;;;;;;20.40;15.10;;;;;;;6.14;100.00;98881.92;105385;1253;61691;-78
2023/01/19 11:03:38;;;;;;;17.90;11.70;;;;;;;6.11;100.00;98873.94;105586;1260;76081;-75
2023/01/19 11:06:14;;;;;;;15.80;11.70;;;;;;;6.20;100.00;98873.54;105800;1260;72244;-76
2023/01/19 11:08:43;;;;;;;20.90;14.10;;;;;;;6.27;100.00;98871.98;106440;1254;73184;-77
2023/01/19 11:11:11;;;;;;;16.60;13.10;;;;;;;6.26;100.00;98873.55;106618;1260;61290;-78
2023/01/19 11:13:38;;;;;;;17.20;12.20;;;;;;;6.25;100.00;98867.88;105690;1255;61450;-77
2023/01/19 11:16:21;;;;;;;18.20;12.60;;;;;;;6.30;100.00;98868.25;105823;1256;73798;-77
2023/01/19 11:18:50;;;;;;;20.60;13.20;;;;;;;6.33;100.00;98865.39;105571;1254;71373;-75
2023/01/19 11:21:17;;;;;;;21.10;14.40;;;;;;;6.30;100.00;98852.81;105681;1254;74525;-77
2023/01/19 11:23:46;;;;;;;17.80;13.10;;;;;;;6.28;100.00;98857.40;105521;1254;64332;-77
2023/01/19 11:26:23;;;;;;;14.60;11.60;;;;;;;6.35;100.00;98854.53;106222;1257;62074;-77
2023/01/19 11:28:53;;;;;;;20.90;13.50;;;;;;;6.42;100.00;98862.45;106674;1254;75121;-76
2023/01/19 11:31:26;;;;;;;22.10;14.30;;;;;;;6.37;100.00;98862.81;106809;1256;68906;-76
2023/01/19 11:33:55;;;;;;;21.40;14.20;;;;;;;6.32;100.00;98861.91;105905;1254;73795;-77
2023/01/19 11:36:35;;;;;;;19.10;14.90;;;;;;;6.38;100.00;98851.44;105800;1259;60910;-77
2023/01/19 11:39:23;;;;;;;25.20;15.70;;;;;;;6.38;100.00;98842.23;105678;1259;60480;-76
2023/01/19 11:41:52;;;;;;;22.70;15.40;;;;;;;6.37;100.00;98843.23;105509;1253;72253;-77
2023/01/19 11:44:32;;;;;;;22.50;15.40;;;;;;;6.49;100.00;98841.69;105670;1253;72525;-76
2023/01/19 11:47:01;;;;;;;22.30;16.30;;;;;;;6.57;100.00;98842.80;105559;1259;72652;-75